Time;durP1;ratioP1;P1;durP2;ratioP2;P2;SDS_P1;SDS_P2;PMS_P1;PMS_P2;Temp;Humidity;BMP_temperature;BMP_pressure;BME280_temperature;BME280_humidity;BME280_pressure;Samples;Min_cycle;Max_cycle;Signal;HPM_P1;HPM_P2
2023/10/05 00:03:50;;;;;;;11.23;3.20;;;;;;;12.58;100.00;102144.75;5082396;28;20496;-71
2023/10/05 00:06:24;;;;;;;4.07;1.02;;;;;;;12.72;100.00;102156.44;5074946;28;20372;-70
2023/10/05 00:08:54;;;;;;;5.55;1.55;;;;;;;12.68;100.00;102151.63;5075090;28;20380;-71
2023/10/05 00:11:28;;;;;;;12.93;3.58;;;;;;;12.59;100.00;102146.41;5074685;28;20115;-71
2023/10/05 00:13:58;;;;;;;2.92;1.27;;;;;;;12.71;100.00;102151.22;5074801;28;20430;-74
2023/10/05 00:16:37;;;;;;;11.88;3.30;;;;;;;12.61;100.00;102153.53;5073199;28;20063;-74
2023/10/05 00:19:11;;;;;;;5.38;1.48;;;;;;;12.74;100.00;102153.53;5074876;28;20059;-71
2023/10/05 00:21:39;;;;;;;9.00;2.90;;;;;;;12.58;100.00;102157.50;5074900;28;20055;-72
2023/10/05 00:24:06;;;;;;;9.25;3.03;;;;;;;12.56;100.00;102165.84;5078758;28;20035;-72
2023/10/05 00:26:36;;;;;;;7.82;2.20;;;;;;;12.66;100.00;102159.16;5094992;28;20082;-72
2023/10/05 00:29:40;;;;;;;9.23;3.13;;;;;;;12.57;100.00;102161.25;5094957;28;20119;-70
2023/10/05 00:31:58;;;;;;;13.77;3.45;;;;;;;12.58;100.00;102163.75;5093334;28;20460;-72
2023/10/05 00:34:30;;;;;;;9.73;3.05;;;;;;;12.60;100.00;102166.25;5094654;28;20059;-71
2023/10/05 00:36:58;;;;;;;5.25;1.58;;;;;;;12.68;100.00;102165.22;5095094;28;20054;-72
2023/10/05 00:39:25;;;;;;;10.23;3.08;;;;;;;12.61;100.00;102173.38;5093720;28;20032;-71
2023/10/05 00:44:46;;;;;;;11.27;3.10;;;;;;;12.52;100.00;102178.16;5089642;28;20043;-71
2023/10/05 00:47:12;;;;;;;10.75;2.92;;;;;;;12.53;100.00;102178.97;5093743;28;20028;-71
2023/10/05 00:49:59;;;;;;;9.25;2.75;;;;;;;12.56;100.00;102171.28;5094633;28;20364;-74
2023/10/05 00:52:26;;;;;;;10.88;2.95;;;;;;;12.54;100.00;102170.63;5094361;28;20036;-72
2023/10/05 00:55:06;;;;;;;7.03;3.00;;;;;;;12.56;100.00;102181.28;5094737;28;20036;-73
2023/10/05 00:57:33;;;;;;;6.40;1.95;;;;;;;12.63;100.00;102175.88;5094501;28;20020;-70
2023/10/05 01:03:00;;;;;;;11.38;3.70;;;;;;;12.58;100.00;102180.03;5071534;28;20380;-74
2023/10/05 01:05:25;;;;;;;3.85;1.25;;;;;;;12.67;100.00;102177.97;5073378;28;20055;-72
2023/10/05 01:07:56;;;;;;;10.98;3.10;;;;;;;12.55;100.00;102191.31;5073969;28;20037;-70
2023/10/05 01:12:48;;;;;;;12.18;3.13;;;;;;;12.52;100.00;102180.03;5073892;28;20059;-69
2023/10/05 01:15:19;;;;;;;8.68;3.03;;;;;;;12.52;100.00;102185.47;5073646;28;20103;-72
2023/10/05 01:17:47;;;;;;;8.00;1.60;;;;;;;12.60;100.00;102179.84;5076058;28;20122;-72
2023/10/05 01:20:22;;;;;;;5.57;1.73;;;;;;;12.63;100.00;102165.03;5084090;28;20393;-74
2023/10/05 01:22:54;;;;;;;11.73;3.35;;;;;;;12.51;100.00;102171.03;5073724;28;20079;-72
2023/10/05 01:25:20;;;;;;;12.00;3.35;;;;;;;12.47;100.00;102171.66;5073392;28;20067;-74
2023/10/05 01:27:49;;;;;;;7.20;2.83;;;;;;;12.46;100.00;102165.41;5072314;28;20060;-73
2023/10/05 01:30:17;;;;;;;10.10;3.25;;;;;;;12.47;100.00;102174.38;5073366;28;20024;-72
2023/10/05 01:32:44;;;;;;;10.73;3.10;;;;;;;12.44;100.00;102166.63;5073788;28;20028;-71
2023/10/05 01:35:14;;;;;;;12.85;3.05;;;;;;;12.42;100.00;102164.13;5073310;28;20078;-71
2023/10/05 01:37:40;;;;;;;8.75;2.45;;;;;;;12.44;100.00;102167.50;5076464;28;20028;-74
2023/10/05 01:43:01;;;;;;;9.98;2.95;;;;;;;12.44;100.00;102164.78;5088446;28;20044;-73
2023/10/05 01:45:29;;;;;;;12.57;3.33;;;;;;;12.42;100.00;102172.28;5093321;28;20020;-69
2023/10/05 01:47:55;;;;;;;7.13;1.90;;;;;;;12.51;100.00;102159.34;5093498;28;20024;-73
2023/10/05 01:50:22;;;;;;;4.18;1.27;;;;;;;12.53;100.00;102160.81;5090460;28;20457;-71
2023/10/05 01:53:37;;;;;;;11.05;3.20;;;;;;;12.43;100.00;102160.38;5078504;28;20030;-72
2023/10/05 01:55:39;;;;;;;12.02;3.20;;;;;;;12.43;100.00;102159.56;5088909;28;20535;-71
2023/10/05 01:58:06;;;;;;;10.20;3.20;;;;;;;12.38;100.00;102160.16;5093262;28;20032;-73
2023/10/05 02:00:32;;;;;;;12.20;3.28;;;;;;;12.41;100.00;102151.63;5090256;28;20373;-72
2023/10/05 02:02:57;;;;;;;8.85;1.63;;;;;;;12.49;100.00;102159.56;5093236;28;20032;-73
2023/10/05 02:05:23;;;;;;;6.75;1.23;;;;;;;12.53;100.00;102155.41;5092701;28;20035;-70
2023/10/05 02:07:49;;;;;;;12.38;3.00;;;;;;;12.40;100.00;102158.06;5092802;28;20114;-72
2023/10/05 02:10:19;;;;;;;9.93;3.28;;;;;;;12.36;100.00;102159.53;5092853;28;20071;-75
2023/10/05 02:12:46;;;;;;;11.50;3.15;;;;;;;12.36;100.00;102162.22;5092311;28;20048;-70
2023/10/05 02:15:16;;;;;;;7.47;2.70;;;;;;;12.34;100.00;102158.91;5092814;28;20024;-70
2023/10/05 02:17:46;;;;;;;6.75;1.58;;;;;;;12.41;100.00;102157.88;5092953;28;20024;-73
2023/10/05 02:21:05;;;;;;;8.38;2.90;;;;;;;12.33;100.00;102141.75;5092681;28;20034;-73
2023/10/05 02:22:58;;;;;;;10.52;2.92;;;;;;;12.32;100.00;102142.81;5085035;28;20501;-73
2023/10/05 02:25:33;;;;;;;9.32;3.28;;;;;;;12.30;100.00;102155.75;5093029;28;20085;-69
2023/10/05 02:27:59;;;;;;;7.80;2.25;;;;;;;12.43;100.00;102152.25;5093200;28;20484;-72
2023/10/05 02:30:27;;;;;;;10.73;3.20;;;;;;;12.34;100.00;102151.59;5092610;28;20187;-69
2023/10/05 02:32:53;;;;;;;10.27;2.95;;;;;;;12.29;100.00;102154.09;5092535;28;20413;-72
2023/10/05 02:35:19;;;;;;;8.98;3.05;;;;;;;12.27;100.00;102152.59;5079234;28;20041;-69
2023/10/05 02:37:48;;;;;;;11.40;3.15;;;;;;;12.26;100.00;102153.63;5072530;28;20032;-71
2023/10/05 02:40:15;;;;;;;8.60;1.70;;;;;;;12.33;100.00;102144.47;5072211;28;20027;-72
2023/10/05 02:42:43;;;;;;;9.93;3.20;;;;;;;12.25;100.00;102143.84;5072450;28;20028;-74
2023/10/05 02:45:11;;;;;;;9.60;3.05;;;;;;;12.19;100.00;102143.59;5072387;28;20032;-73
2023/10/05 02:47:36;;;;;;;13.10;3.08;;;;;;;12.20;100.00;102142.56;5072216;28;20059;-71
2023/10/05 02:50:05;;;;;;;6.88;1.75;;;;;;;12.28;100.00;102135.28;5072451;28;20033;-73
2023/10/05 02:52:33;;;;;;;8.52;3.28;;;;;;;12.18;100.00;102130.25;5072222;28;20056;-72
2023/10/05 02:54:58;;;;;;;9.57;2.70;;;;;;;12.17;100.00;102134.84;5072351;28;20035;-70
2023/10/05 02:57:25;;;;;;;9.57;3.10;;;;;;;12.14;100.00;102134.41;5070510;28;20036;-74
2023/10/05 02:59:51;;;;;;;5.63;2.08;;;;;;;12.24;100.00;102132.13;5072256;28;20025;-72
2023/10/05 03:02:18;;;;;;;10.15;3.03;;;;;;;12.13;100.00;102136.28;5069808;28;20111;-73
2023/10/05 03:04:44;;;;;;;9.82;3.17;;;;;;;12.13;100.00;102138.16;5072603;28;20426;-72
2023/10/05 03:07:17;;;;;;;11.10;3.40;;;;;;;12.10;100.00;102139.41;5072223;28;20028;-71
2023/10/05 03:09:47;;;;;;;5.55;1.90;;;;;;;12.19;100.00;102127.31;5075821;28;20032;-72
2023/10/05 03:12:14;;;;;;;7.95;2.63;;;;;;;12.12;100.00;102120.19;5095459;28;20089;-73
2023/10/05 03:14:43;;;;;;;8.00;3.28;;;;;;;12.09;100.00;102121.44;5096274;28;20038;-71
2023/10/05 03:17:13;;;;;;;10.60;3.40;;;;;;;12.05;100.00;102125.63;5096708;28;20081;-72
2023/10/05 03:19:39;;;;;;;13.70;3.50;;;;;;;12.10;100.00;102125.84;5081984;28;20036;-71
2023/10/05 03:22:07;;;;;;;12.38;3.40;;;;;;;12.07;100.00;102128.97;5086567;28;20039;-71
2023/10/05 03:24:34;;;;;;;13.65;1.80;;;;;;;12.15;100.00;102130.66;5090449;28;20031;-71
2023/10/05 03:27:03;;;;;;;7.47;3.10;;;;;;;12.07;100.00;102123.53;5106987;28;20055;-71
2023/10/05 03:29:29;;;;;;;14.32;3.30;;;;;;;12.04;100.00;102126.66;5074348;28;20052;-71
2023/10/05 03:32:04;;;;;;;7.13;2.08;;;;;;;12.12;100.00;102115.59;5082493;28;20436;-71
2023/10/05 03:34:31;;;;;;;7.80;3.05;;;;;;;12.03;100.00;102122.25;5095073;28;20032;-71
2023/10/05 03:36:59;;;;;;;11.40;3.25;;;;;;;12.01;100.00;102118.91;5096008;28;20138;-71
2023/10/05 03:39:28;;;;;;;9.68;1.70;;;;;;;12.11;100.00;102123.94;5095639;28;20065;-69
2023/10/05 03:41:53;;;;;;;10.00;3.25;;;;;;;12.01;100.00;102125.19;5095921;28;20352;-69
2023/10/05 03:44:18;;;;;;;15.68;3.75;;;;;;;12.02;100.00;102115.19;5095499;28;20042;-69
2023/10/05 03:46:46;;;;;;;8.07;1.85;;;;;;;12.09;100.00;102126.88;5078235;28;20040;-69
2023/10/05 03:49:15;;;;;;;7.72;1.63;;;;;;;12.09;100.00;102131.47;5088231;28;20138;-70
2023/10/05 03:51:49;;;;;;;3.03;1.50;;;;;;;12.14;100.00;102128.97;5077438;28;20036;-70
2023/10/05 03:54:21;;;;;;;9.50;3.10;;;;;;;11.92;100.00;102130.97;5076039;28;20110;-70
2023/10/05 03:56:50;;;;;;;9.48;2.90;;;;;;;11.92;100.00;102120.94;5075163;28;20031;-70
2023/10/05 03:59:18;;;;;;;8.88;2.88;;;;;;;11.89;100.00;102127.59;5075255;28;20475;-70
2023/10/05 04:01:48;;;;;;;10.80;3.58;;;;;;;11.88;100.00;102117.81;5072931;28;20109;-70
2023/10/05 04:04:16;;;;;;;13.35;3.58;;;;;;;11.90;100.00;102112.19;5087028;28;20036;-70
2023/10/05 04:06:42;;;;;;;10.07;3.03;;;;;;;11.84;100.00;102110.28;5086408;28;20024;-70
2023/10/05 04:09:12;;;;;;;4.40;1.60;;;;;;;11.97;100.00;102115.78;5075132;28;20025;-70
2023/10/05 04:11:37;;;;;;;11.00;3.00;;;;;;;11.87;100.00;102118.00;5074726;28;20045;-70
2023/10/05 04:14:03;;;;;;;8.55;3.25;;;;;;;11.86;100.00;102113.63;5075144;28;20071;-70
2023/10/05 04:16:33;;;;;;;11.63;3.50;;;;;;;11.82;100.00;102115.06;5084037;28;20046;-70
2023/10/05 04:18:59;;;;;;;10.07;3.40;;;;;;;11.81;100.00;102114.22;5091391;28;20036;-70
2023/10/05 04:21:26;;;;;;;3.47;1.90;;;;;;;11.93;100.00;102124.53;5093776;28;20063;-70
2023/10/05 04:23:52;;;;;;;8.73;3.15;;;;;;;11.81;100.00;102113.41;5087501;28;20436;-70
2023/10/05 04:26:21;;;;;;;12.20;3.00;;;;;;;11.77;100.00;102121.09;5074827;28;20108;-70
2023/10/05 04:28:52;;;;;;;4.85;1.52;;;;;;;11.87;100.00;102124.25;5074757;28;20055;-70
2023/10/05 04:31:23;;;;;;;9.63;1.60;;;;;;;11.89;100.00;102126.78;5074946;28;20094;-70
2023/10/05 04:33:51;;;;;;;9.20;2.38;;;;;;;11.89;100.00;102124.06;5080998;28;20028;-70
2023/10/05 04:36:19;;;;;;;12.23;3.40;;;;;;;11.74;100.00;102118.78;5095691;28;20024;-71
2023/10/05 04:38:45;;;;;;;12.68;3.83;;;;;;;11.73;100.00;102122.53;5094477;28;20372;-70
2023/10/05 04:41:14;;;;;;;11.68;2.22;;;;;;;11.81;100.00;102124.25;5094705;28;20475;-70
2023/10/05 04:43:40;;;;;;;12.60;3.78;;;;;;;11.73;100.00;102118.97;5094445;28;20102;-70
2023/10/05 04:46:07;;;;;;;7.35;2.10;;;;;;;11.81;100.00;102124.25;5094699;28;20031;-70
2023/10/05 04:48:32;;;;;;;6.57;2.30;;;;;;;11.83;100.00;102119.44;5101981;28;20028;-70
2023/10/05 04:51:05;;;;;;;5.57;1.90;;;;;;;11.84;100.00;102123.84;5115037;27;20107;-70
2023/10/05 04:53:32;;;;;;;13.63;3.85;;;;;;;11.75;100.00;102125.88;5105862;28;20561;-70
2023/10/05 04:56:10;;;;;;;13.70;4.07;;;;;;;11.72;100.00;102114.63;5094525;28;20028;-70
2023/10/05 05:01:35;;;;;;;5.50;1.92;;;;;;;11.83;100.00;102114.84;5071307;28;20039;-70
2023/10/05 05:04:27;;;;;;;12.00;3.30;;;;;;;11.76;100.00;102105.88;5094403;28;20073;-70
2023/10/05 05:06:53;;;;;;;11.10;3.78;;;;;;;11.76;100.00;102111.28;5094345;28;20388;-70
2023/10/05 05:09:19;;;;;;;10.75;1.92;;;;;;;11.84;100.00;102113.81;5094066;28;20032;-70
2023/10/05 05:11:47;;;;;;;10.05;3.63;;;;;;;11.76;100.00;102111.28;5093591;28;20410;-70
2023/10/05 05:14:12;;;;;;;7.63;1.83;;;;;;;11.86;100.00;102130.72;5093915;28;20369;-70
2023/10/05 05:16:39;;;;;;;5.20;2.35;;;;;;;11.86;100.00;102125.28;5092872;28;20077;-70
2023/10/05 05:19:06;;;;;;;12.48;3.80;;;;;;;11.78;100.00;102120.06;5094027;28;20070;-70
2023/10/05 05:21:34;;;;;;;10.70;3.50;;;;;;;11.76;100.00;102119.44;5094013;28;20107;-70
2023/10/05 05:24:00;;;;;;;12.50;3.40;;;;;;;11.75;100.00;102125.88;5093664;28;20114;-70
2023/10/05 05:26:26;;;;;;;10.70;3.42;;;;;;;11.75;100.00;102123.16;5093660;28;20055;-70
2023/10/05 05:28:52;;;;;;;13.25;3.70;;;;;;;11.76;100.00;102133.00;5093871;28;20063;-71
2023/10/05 05:31:17;;;;;;;4.13;1.35;;;;;;;11.85;100.00;102139.91;5093811;28;20044;-70
2023/10/05 05:33:44;;;;;;;11.32;3.85;;;;;;;11.75;100.00;102128.59;5093546;28;20081;-70
2023/10/05 05:36:13;;;;;;;11.77;4.03;;;;;;;11.75;100.00;102135.91;5093687;28;20052;-70
2023/10/05 05:38:47;;;;;;;11.95;4.00;;;;;;;11.69;100.00;102130.22;5093426;28;20039;-70
2023/10/05 05:41:15;;;;;;;12.68;3.92;;;;;;;11.70;100.00;102139.22;5076733;28;20024;-70
2023/10/05 05:43:41;;;;;;;12.73;3.97;;;;;;;11.72;100.00;102136.31;5072983;28;20028;-69
2023/10/05 05:46:13;;;;;;;9.35;2.75;;;;;;;11.80;100.00;102142.38;5073303;28;20158;-69
2023/10/05 05:48:48;;;;;;;11.85;3.97;;;;;;;11.76;100.00;102140.28;5072935;28;20040;-69
2023/10/05 05:51:15;;;;;;;4.63;2.13;;;;;;;11.84;100.00;102145.53;5073191;28;20037;-70
2023/10/05 05:53:43;;;;;;;14.77;4.03;;;;;;;11.80;100.00;102145.09;5071603;28;20387;-69
2023/10/05 05:56:08;;;;;;;11.73;4.22;;;;;;;11.83;100.00;102147.38;5073383;28;20036;-69
2023/10/05 05:58:34;;;;;;;4.43;1.90;;;;;;;11.87;100.00;102145.97;5072861;28;20032;-69
2023/10/05 06:00:59;;;;;;;6.75;2.10;;;;;;;11.92;100.00;102145.34;5087279;28;20028;-70
2023/10/05 06:03:25;;;;;;;11.63;3.97;;;;;;;11.85;100.00;102134.50;5093237;28;20038;-70
2023/10/05 06:05:51;;;;;;;6.85;2.00;;;;;;;11.94;100.00;102137.91;5092956;28;20024;-70
2023/10/05 06:08:17;;;;;;;15.68;3.80;;;;;;;11.91;100.00;102134.69;5093147;28;20023;-70
2023/10/05 06:10:43;;;;;;;12.55;4.22;;;;;;;11.88;100.00;102141.34;5092908;28;20068;-70
2023/10/05 06:13:11;;;;;;;13.80;3.83;;;;;;;11.88;100.00;102142.22;5092688;28;20487;-70
2023/10/05 06:15:37;;;;;;;4.47;1.50;;;;;;;12.00;100.00;102153.38;5092867;28;20028;-70
2023/10/05 06:18:03;;;;;;;13.32;3.85;;;;;;;11.93;100.00;102160.63;5076483;28;20033;-70
2023/10/05 06:20:29;;;;;;;17.77;4.28;;;;;;;11.91;100.00;102154.53;5072464;28;20028;-70
2023/10/05 06:22:54;;;;;;;13.05;2.42;;;;;;;12.05;100.00;102163.59;5072725;28;20035;-70
2023/10/05 06:25:19;;;;;;;12.23;2.92;;;;;;;12.06;100.00;102162.53;5072713;28;20500;-70
2023/10/05 06:27:45;;;;;;;13.95;4.25;;;;;;;12.01;100.00;102167.75;5072438;28;20020;-70
2023/10/05 06:30:11;;;;;;;12.27;3.78;;;;;;;12.02;100.00;102174.88;5072607;28;20060;-70
2023/10/05 06:32:37;;;;;;;13.93;4.22;;;;;;;12.03;100.00;102176.53;5072273;28;20032;-71
2023/10/05 06:35:07;;;;;;;11.32;3.97;;;;;;;12.03;100.00;102180.09;5072524;28;20039;-74
2023/10/05 06:37:33;;;;;;;11.90;4.00;;;;;;;12.09;100.00;102183.84;5083648;28;20028;-70
2023/10/05 06:39:58;;;;;;;12.38;3.83;;;;;;;12.08;100.00;102182.19;5092638;28;20034;-70
2023/10/05 06:42:25;;;;;;;11.38;3.78;;;;;;;12.10;100.00;102177.38;5093000;28;20448;-70
2023/10/05 06:44:51;;;;;;;6.55;2.15;;;;;;;12.18;100.00;102179.94;5091655;28;20113;-70
2023/10/05 06:47:35;;;;;;;9.35;2.88;;;;;;;12.20;100.00;102183.28;5092396;28;20078;-70
2023/10/05 06:50:02;;;;;;;20.15;4.47;;;;;;;12.15;100.00;102183.06;5092755;28;20024;-69
2023/10/05 06:52:27;;;;;;;16.45;4.20;;;;;;;12.17;100.00;102182.84;5092764;28;20024;-70
2023/10/05 06:54:52;;;;;;;13.60;3.88;;;;;;;12.17;100.00;102191.81;5092155;28;20108;-69
2023/10/05 06:57:17;;;;;;;17.50;4.57;;;;;;;12.20;100.00;102199.56;5092510;28;20024;-70
2023/10/05 06:59:43;;;;;;;10.35;3.97;;;;;;;12.23;100.00;102199.16;5085488;28;20029;-69
2023/10/05 07:02:08;;;;;;;12.57;4.05;;;;;;;12.25;100.00;102208.97;5069944;28;20028;-70
2023/10/05 07:04:35;;;;;;;16.35;3.75;;;;;;;12.27;100.00;102210.44;5083040;28;20039;-74
2023/10/05 07:07:03;;;;;;;17.10;4.60;;;;;;;12.29;100.00;102215.66;5091153;28;20098;-69
2023/10/05 07:09:29;;;;;;;12.45;4.07;;;;;;;12.30;100.00;102209.19;5092457;28;20524;-71
2023/10/05 07:11:55;;;;;;;15.77;4.45;;;;;;;12.33;100.00;102215.03;5092595;28;20221;-69
2023/10/05 07:14:20;;;;;;;14.77;4.50;;;;;;;12.37;100.00;102220.91;5092484;28;20107;-70
2023/10/05 07:16:46;;;;;;;11.55;4.25;;;;;;;12.40;100.00;102225.94;5092125;28;20020;-69
2023/10/05 07:19:11;;;;;;;9.90;3.50;;;;;;;12.42;100.00;102229.28;5092315;28;20024;-70
2023/10/05 07:21:36;;;;;;;13.15;4.28;;;;;;;12.44;100.00;102232.66;5090692;28;20022;-69
2023/10/05 07:24:04;;;;;;;9.63;3.70;;;;;;;12.46;100.00;102230.56;5085381;28;20036;-69
2023/10/05 07:26:29;;;;;;;8.07;1.67;;;;;;;12.58;100.00;102228.91;5071427;28;20037;-69
2023/10/05 07:28:55;;;;;;;13.65;4.15;;;;;;;12.51;100.00;102233.47;5071448;28;20391;-69
2023/10/05 07:31:20;;;;;;;14.57;4.05;;;;;;;12.54;100.00;102243.13;5076465;28;20103;-69
2023/10/05 07:33:46;;;;;;;11.50;4.35;;;;;;;12.58;100.00;102239.78;5091521;28;20039;-69
2023/10/05 07:36:13;;;;;;;12.50;4.28;;;;;;;12.61;100.00;102248.59;5091327;28;20106;-69
2023/10/05 07:38:38;;;;;;;14.65;3.92;;;;;;;12.66;100.00;102246.06;5091426;28;20414;-69
2023/10/05 07:41:04;;;;;;;16.02;3.92;;;;;;;12.67;100.00;102258.63;5090513;28;20070;-71
2023/10/05 07:43:32;;;;;;;11.35;4.20;;;;;;;12.71;100.00;102262.59;5091430;28;20028;-71
2023/10/05 07:45:57;;;;;;;13.20;3.92;;;;;;;12.69;100.00;102257.34;5090661;28;20098;-72
2023/10/05 07:48:22;;;;;;;13.07;4.13;;;;;;;12.73;100.00;102253.19;5091669;28;20024;-71
2023/10/05 07:50:51;;;;;;;13.55;4.13;;;;;;;12.76;100.00;102252.78;5091389;28;20038;-74
2023/10/05 07:53:16;;;;;;;7.63;2.10;;;;;;;12.88;100.00;102265.78;5091675;28;20066;-72
2023/10/05 07:55:42;;;;;;;7.50;2.35;;;;;;;12.91;100.00;102271.63;5092022;28;20048;-72
2023/10/05 07:58:07;;;;;;;14.43;4.30;;;;;;;12.92;100.00;102270.59;5094297;28;20024;-74
2023/10/05 08:00:35;;;;;;;15.35;4.15;;;;;;;13.00;100.00;102274.13;5092648;28;20059;-71
2023/10/05 08:03:01;;;;;;;11.07;4.10;;;;;;;13.04;100.00;102267.25;5094659;28;20071;-72
2023/10/05 08:05:26;;;;;;;14.02;3.92;;;;;;;13.08;100.00;102261.19;5094622;28;20081;-75
2023/10/05 08:07:52;;;;;;;13.05;3.80;;;;;;;13.12;100.00;102261.63;5094290;28;20055;-77
2023/10/05 08:10:18;;;;;;;12.68;4.20;;;;;;;13.17;100.00;102266.44;5083315;28;20066;-70
2023/10/05 08:12:50;;;;;;;6.82;1.92;;;;;;;13.23;100.00;102274.59;5092757;28;20044;-70
2023/10/05 08:15:18;;;;;;;;;;;;;;;13.32;100.00;102277.97;5093293;28;20039;-70
2023/10/05 08:17:44;;;;;;;8.05;2.28;;;;;;;13.37;100.00;102285.53;5077906;28;19920;-70
2023/10/05 08:20:10;;;;;;;11.55;3.67;;;;;;;13.36;100.00;102283.84;5073395;28;20037;-71
2023/10/05 08:22:36;;;;;;;14.60;3.90;;;;;;;13.41;100.00;102278.63;5073497;28;20060;-73
2023/10/05 08:25:10;;;;;;;10.30;3.60;;;;;;;13.44;100.00;102280.94;5074929;28;20025;-70
2023/10/05 08:27:36;;;;;;;13.55;3.60;;;;;;;13.48;100.00;102290.31;5074633;28;20482;-72
2023/10/05 08:30:03;;;;;;;10.32;3.60;;;;;;;13.47;100.00;102280.50;5092843;28;20051;-74
2023/10/05 08:32:32;;;;;;;13.15;3.67;;;;;;;13.49;100.00;102289.28;5095088;28;20028;-74
2023/10/05 08:34:58;;;;;;;10.98;3.63;;;;;;;13.53;100.00;102290.53;5094903;28;20060;-73
2023/10/05 08:37:23;;;;;;;15.93;3.78;;;;;;;13.57;100.00;102286.38;5094937;28;20424;-70
2023/10/05 08:39:51;;;;;;;10.85;3.70;;;;;;;13.61;100.00;102294.94;5094612;28;20371;-72
2023/10/05 08:42:16;;;;;;;12.25;3.60;;;;;;;13.64;100.00;102291.78;5094532;28;20035;-74
2023/10/05 08:44:43;;;;;;;18.60;3.92;;;;;;;13.67;100.00;102295.97;5094289;28;20025;-73
2023/10/05 08:47:10;;;;;;;11.60;3.75;;;;;;;13.69;100.00;102291.97;5094802;28;20028;-72
2023/10/05 08:49:36;;;;;;;11.90;3.67;;;;;;;13.72;100.00;102302.44;5093666;28;20444;-73
2023/10/05 08:52:13;;;;;;;11.70;3.75;;;;;;;13.76;100.00;102303.69;5093074;28;20032;-71
2023/10/05 08:54:38;;;;;;;9.75;3.60;;;;;;;13.83;100.00;102303.72;5093080;28;20035;-73
2023/10/05 08:57:10;;;;;;;10.80;3.47;;;;;;;13.84;100.00;102318.97;5093265;28;20043;-73
2023/10/05 08:59:45;;;;;;;11.77;3.60;;;;;;;13.89;100.00;102316.47;5094364;28;20032;-75
2023/10/05 09:02:11;;;;;;;9.77;3.75;;;;;;;13.92;100.00;102315.19;5089141;28;20028;-70
2023/10/05 09:04:43;;;;;;;11.00;3.47;;;;;;;13.97;100.00;102313.50;5077886;28;20539;-73
2023/10/05 09:07:25;;;;;;;4.88;1.77;;;;;;;14.06;100.00;102321.47;5091495;28;20490;-73
2023/10/05 09:09:57;;;;;;;13.95;3.60;;;;;;;14.04;100.00;102320.84;5093702;28;20028;-70
2023/10/05 09:20:32;;;;;;;12.43;3.60;;;;;;;14.14;100.00;102351.19;5093419;28;20086;-72
2023/10/05 09:23:04;;;;;;;9.32;3.53;;;;;;;14.16;100.00;102357.25;5109553;28;20036;-71
2023/10/05 09:25:34;;;;;;;9.93;3.53;;;;;;;14.26;100.00;102371.25;5093610;28;20097;-70
2023/10/05 09:28:12;;;;;;;14.13;3.63;;;;;;;14.24;100.00;102362.47;5093626;28;20028;-69
2023/10/05 09:30:55;;;;;;;11.18;3.30;;;;;;;14.28;100.00;102355.56;5091746;28;20039;-74
2023/10/05 09:33:33;;;;;;;10.52;3.33;;;;;;;14.27;100.00;102350.34;5093803;28;20058;-70
2023/10/05 09:36:16;;;;;;;11.45;3.60;;;;;;;14.32;100.00;102356.78;5077880;28;20476;-75
2023/10/05 09:38:43;;;;;;;13.50;3.55;;;;;;;14.39;100.00;102358.66;5076699;28;20032;-72
2023/10/05 09:41:09;;;;;;;10.18;3.30;;;;;;;14.40;100.00;102354.88;5078538;28;20024;-70
2023/10/05 09:43:38;;;;;;;12.70;3.53;;;;;;;14.41;100.00;102351.94;5090937;28;20100;-70
2023/10/05 09:46:09;;;;;;;10.55;3.50;;;;;;;14.41;100.00;102353.84;5090536;28;20038;-73
2023/10/05 09:48:38;;;;;;;13.60;3.22;;;;;;;14.42;100.00;102350.06;5085077;28;20044;-72
2023/10/05 09:51:09;;;;;;;11.75;3.28;;;;;;;14.43;100.00;102351.75;5073236;28;20037;-73
2023/10/05 09:53:39;;;;;;;10.32;3.00;;;;;;;14.45;100.00;102357.81;5071726;28;20036;-72
2023/10/05 09:56:11;;;;;;;10.40;3.35;;;;;;;14.48;100.00;102358.22;5073323;28;20032;-73
2023/10/05 09:58:39;;;;;;;12.55;3.60;;;;;;;14.49;100.00;102359.03;5073261;28;20028;-73
2023/10/05 10:01:10;;;;;;;9.93;3.28;;;;;;;14.47;100.00;102362.00;5069199;28;20131;-72
2023/10/05 10:03:39;;;;;;;9.98;3.17;;;;;;;14.51;100.00;102359.69;5073069;28;20028;-75
2023/10/05 10:06:10;;;;;;;11.52;3.50;;;;;;;14.54;100.00;102360.09;5072912;28;20039;-71
2023/10/05 10:08:57;;;;;;;11.80;3.50;;;;;;;14.58;100.00;102360.47;5072424;28;20044;-70
2023/10/05 10:11:27;;;;;;;13.27;3.50;;;;;;;14.58;100.00;102359.66;5076677;28;20491;-72
2023/10/05 10:14:06;;;;;;;14.25;3.90;;;;;;;14.62;100.00;102359.03;5085358;28;20070;-72
2023/10/05 10:16:33;;;;;;;12.85;3.55;;;;;;;14.61;100.00;102362.81;5093257;28;20070;-72
2023/10/05 10:19:07;;;;;;;9.98;3.33;;;;;;;14.67;100.00;102356.53;5082178;28;20467;-76
2023/10/05 10:21:47;;;;;;;11.25;3.47;;;;;;;14.69;100.00;102362.59;5092600;28;20020;-77
2023/10/05 10:24:20;;;;;;;11.02;3.40;;;;;;;14.75;100.00;102357.31;5093251;28;20024;-73
2023/10/05 10:26:53;;;;;;;14.10;3.35;;;;;;;14.80;100.00;102360.25;5092537;28;20082;-74
2023/10/05 10:29:22;;;;;;;14.30;3.50;;;;;;;14.81;100.00;102360.03;5092709;28;20097;-75
2023/10/05 10:32:22;;;;;;;11.77;3.67;;;;;;;14.88;100.00;102362.72;5089680;28;20056;-75
2023/10/05 10:35:13;;;;;;;12.10;3.20;;;;;;;14.83;100.00;102351.63;5088134;28;20043;-74
2023/10/05 10:37:44;;;;;;;10.40;3.22;;;;;;;14.86;100.00;102356.66;5092841;28;20024;-70
2023/10/05 10:42:49;;;;;;;12.25;3.40;;;;;;;14.94;100.00;102369.19;5092482;28;20036;-70
2023/10/05 10:45:16;;;;;;;12.15;3.58;;;;;;;15.00;100.00;102352.78;5092621;28;20062;-71
2023/10/05 10:47:47;;;;;;;11.38;3.33;;;;;;;15.07;100.00;102367.22;5092692;28;20031;-71
2023/10/05 10:50:18;;;;;;;11.13;3.50;;;;;;;15.08;100.00;102362.59;5085860;28;20471;-69
2023/10/05 10:52:43;;;;;;;12.68;3.40;;;;;;;15.18;100.00;102352.06;5072875;28;20036;-71
2023/10/05 10:55:16;;;;;;;12.27;3.35;;;;;;;15.20;100.00;102358.16;5076711;28;20023;-70
2023/10/05 10:57:45;;;;;;;11.40;3.50;;;;;;;15.22;100.00;102358.75;5091790;28;20452;-69
2023/10/05 11:02:56;;;;;;;9.60;3.85;;;;;;;15.38;100.00;102345.63;5089615;28;20118;-70
2023/10/05 11:05:35;;;;;;;16.05;3.75;;;;;;;15.45;100.00;102345.59;5091600;28;20387;-76
2023/10/05 11:08:01;;;;;;;10.70;3.17;;;;;;;15.46;100.00;102347.25;5092078;28;20136;-76
2023/10/05 11:10:30;;;;;;;10.25;3.17;;;;;;;15.63;100.00;102340.22;5090577;28;20028;-74
2023/10/05 11:13:14;;;;;;;13.05;3.45;;;;;;;15.59;100.00;102353.47;5090907;28;20052;-72
2023/10/05 11:15:59;;;;;;;13.50;3.78;;;;;;;15.64;100.00;102358.25;5088553;28;20129;-73
2023/10/05 11:18:34;;;;;;;14.30;3.90;;;;;;;15.73;100.00;102354.19;5091498;28;20035;-72
2023/10/05 11:21:24;;;;;;;8.32;2.95;;;;;;;15.81;100.00;102355.00;5092233;28;20024;-73
2023/10/05 11:23:57;;;;;;;12.20;3.40;;;;;;;15.88;100.00;102353.03;5092147;28;20063;-75
2023/10/05 11:26:57;;;;;;;9.93;3.60;;;;;;;15.90;100.00;102359.13;5092119;28;20028;-72
2023/10/05 11:29:29;;;;;;;9.65;3.50;;;;;;;15.95;100.00;102345.63;5092489;28;20068;-73
2023/10/05 11:32:03;;;;;;;12.23;3.05;;;;;;;16.08;100.00;102352.88;5093280;28;20530;-72
2023/10/05 11:34:29;;;;;;;10.30;3.38;;;;;;;16.12;100.00;102349.47;5096079;28;20533;-70
2023/10/05 11:36:59;;;;;;;11.65;3.58;;;;;;;16.13;100.00;102353.00;5095871;28;20036;-72
2023/10/05 11:39:27;;;;;;;11.27;3.55;;;;;;;16.16;100.00;102347.09;5096137;28;20032;-71
2023/10/05 11:41:58;;;;;;;10.70;3.50;;;;;;;16.28;100.00;102344.47;5092885;28;20538;-76
2023/10/05 11:44:24;;;;;;;13.75;3.75;;;;;;;16.34;100.00;102345.47;5096033;28;20081;-71
2023/10/05 11:46:53;;;;;;;10.35;3.55;;;;;;;16.40;100.00;102337.19;5095752;28;20039;-73
2023/10/05 11:49:20;;;;;;;9.35;3.15;;;;;;;16.55;100.00;102339.53;5095966;28;20024;-74
2023/10/05 11:51:56;;;;;;;9.15;3.15;;;;;;;16.49;100.00;102340.44;5095611;28;20032;-75